Time;durP1;ratioP1;P1;durP2;ratioP2;P2;SDS_P1;SDS_P2;PMS_P1;PMS_P2;Temp;Humidity;BMP_temperature;BMP_pressure;BME280_temperature;BME280_humidity;BME280_pressure;Samples;Min_cycle;Max_cycle;Signal;HPM_P1;HPM_P2
2021/10/01 00:01:35;;;;;;;3.03;1.50;;;11.70;99.90;11.40;97882.00;;;;5065294;28;20250;-68
2021/10/01 00:04:24;;;;;;;3.77;1.90;;;11.70;99.90;11.30;97878.00;;;;5066300;28;20693;-68
2021/10/01 00:07:15;;;;;;;1.63;1.47;;;11.60;99.90;11.30;97880.00;;;;5065574;28;20210;-68
2021/10/01 00:10:05;;;;;;;2.00;1.70;;;11.60;99.90;11.30;97870.00;;;;5065647;28;20587;-67
2021/10/01 00:12:54;;;;;;;1.83;1.67;;;11.60;99.90;11.30;97875.00;;;;5065727;28;20232;-67
2021/10/01 00:15:44;;;;;;;1.60;1.50;;;11.50;99.90;11.10;97869.00;;;;5065472;28;20204;-66
2021/10/01 00:18:32;;;;;;;1.73;1.57;;;11.50;99.90;10.90;97861.00;;;;5065672;28;20197;-66
2021/10/01 00:21:21;;;;;;;1.60;1.50;;;11.30;99.90;10.80;97862.00;;;;5064360;28;20251;-68
2021/10/01 00:24:12;;;;;;;1.80;1.70;;;11.20;99.90;10.80;97857.00;;;;5066130;28;20203;-67
2021/10/01 00:27:01;;;;;;;3.50;2.10;;;11.20;99.90;10.50;97856.00;;;;5064810;28;20603;-67
2021/10/01 00:29:50;;;;;;;1.47;1.20;;;;;10.20;97853.00;;;;5064523;28;20211;-68
2021/10/01 00:32:39;;;;;;;2.97;1.50;;;10.90;99.90;10.20;97851.00;;;;5065593;28;20729;-66
2021/10/01 00:35:28;;;;;;;2.73;1.80;;;10.70;99.90;10.20;97849.00;;;;5072534;28;20667;-68
2021/10/01 00:38:17;;;;;;;2.70;1.87;;;10.60;99.90;9.90;97844.00;;;;5081171;28;20662;-68
2021/10/01 00:41:07;;;;;;;2.40;1.70;;;10.50;99.90;9.90;97847.00;;;;5087952;28;20223;-68
2021/10/01 00:43:56;;;;;;;4.10;1.70;;;10.40;99.90;9.80;97847.00;;;;5083078;28;20203;-68
2021/10/01 00:46:46;;;;;;;2.23;2.00;;;10.30;99.90;9.60;97842.00;;;;5073828;28;20215;-69
2021/10/01 00:49:36;;;;;;;1.77;1.63;;;10.20;99.90;9.60;97831.00;;;;5084112;28;20209;-66
2021/10/01 00:52:24;;;;;;;1.93;1.70;;;9.90;99.90;9.60;97835.00;;;;5066097;28;20228;-68
2021/10/01 00:55:13;;;;;;;3.30;1.90;;;10.00;99.90;9.90;97834.00;;;;5073538;28;20199;-67
2021/10/01 00:58:04;;;;;;;2.37;1.50;;;10.10;99.90;9.70;97824.00;;;;5083004;28;20195;-66
2021/10/01 01:01:04;;;;;;;2.70;1.93;;;10.10;99.90;9.60;97822.00;;;;5073490;28;20516;-67
2021/10/01 01:03:57;;;;;;;1.97;1.77;;;10.00;99.90;9.50;97826.00;;;;5064847;28;20239;-67
2021/10/01 01:06:56;;;;;;;3.70;2.13;;;10.00;99.90;9.50;97817.00;;;;5064679;28;20222;-66
2021/10/01 01:10:05;;;;;;;4.73;1.90;;;9.90;99.90;9.40;97822.00;;;;5064787;28;20211;-67
2021/10/01 01:13:00;;;;;;;3.33;1.93;;;9.90;99.90;9.40;97815.00;;;;5065083;28;20220;-66
2021/10/01 01:15:58;;;;;;;3.57;1.77;;;9.80;99.90;9.30;97822.00;;;;5065780;28;20210;-68
2021/10/01 01:18:50;;;;;;;2.40;2.20;;;9.70;99.90;9.20;97809.00;;;;5066696;28;20567;-67
2021/10/01 01:21:55;;;;;;;3.50;2.07;;;9.70;99.90;9.30;97812.00;;;;5064105;28;20220;-67
2021/10/01 01:25:12;;;;;;;2.00;1.83;;;9.70;99.90;9.30;97809.00;;;;5065446;28;20204;-67
2021/10/01 01:28:10;;;;;;;1.93;1.77;;;9.60;99.90;9.40;97802.00;;;;5064580;28;20583;-66
2021/10/01 01:31:08;;;;;;;3.13;2.03;;;9.70;99.90;9.60;97797.00;;;;5070795;28;20226;-66
2021/10/01 01:34:02;;;;;;;2.20;1.73;;;9.70;99.90;9.30;97796.00;;;;5080865;28;20227;-67
2021/10/01 01:36:57;;;;;;;3.43;2.00;;;9.70;99.90;9.00;97797.00;;;;5063493;28;20290;-66
2021/10/01 01:39:48;;;;;;;5.33;2.00;;;9.70;99.90;9.10;97781.00;;;;5079592;28;20207;-68
2021/10/01 01:42:39;;;;;;;1.90;1.47;;;9.60;99.90;9.30;97791.00;;;;5076607;28;20714;-67
2021/10/01 01:45:29;;;;;;;4.07;2.10;;;9.50;99.90;9.30;97789.00;;;;5066521;28;20227;-68
2021/10/01 01:48:19;;;;;;;2.23;2.03;;;9.50;99.90;9.20;97786.00;;;;5068166;28;20208;-67
2021/10/01 01:51:11;;;;;;;2.10;1.90;;;9.60;99.90;9.10;97777.00;;;;5067738;28;20219;-67
2021/10/01 01:54:00;;;;;;;5.23;2.10;;;9.50;99.90;9.00;97779.00;;;;5068605;28;20247;-67
2021/10/01 01:56:49;;;;;;;4.73;2.27;;;9.50;99.90;9.10;97783.00;;;;5077444;28;20662;-68
2021/10/01 01:59:39;;;;;;;5.17;2.37;;;9.50;99.90;9.20;97776.00;;;;5084845;28;20207;-66
2021/10/01 02:02:28;;;;;;;2.27;2.03;;;9.50;99.90;9.40;97761.00;;;;5068370;28;20228;-67
2021/10/01 02:05:18;;;;;;;4.67;2.30;;;9.50;99.90;9.40;97761.00;;;;5069554;28;20200;-67
2021/10/01 02:08:10;;;;;;;4.87;2.53;;;9.60;99.90;9.60;97768.00;;;;5069394;28;20216;-67
2021/10/01 02:10:59;;;;;;;2.50;1.90;;;9.70;99.90;9.70;97769.00;;;;5067445;28;20629;-67
2021/10/01 02:13:48;;;;;;;2.33;1.80;;;9.80;99.90;9.60;97750.00;;;;5068027;28;20224;-67
2021/10/01 02:16:39;;;;;;;4.43;2.30;;;9.90;99.90;9.50;97757.00;;;;5068510;28;20192;-68
2021/10/01 02:19:34;;;;;;;2.30;1.77;;;9.90;99.90;9.40;97751.00;;;;5068880;28;20204;-68
2021/10/01 02:22:23;;;;;;;4.70;1.70;;;9.90;99.90;9.60;97744.00;;;;5067799;28;20714;-66
2021/10/01 02:28:25;;;;;;;7.17;2.23;;;9.90;99.90;9.60;97748.00;;;;5068699;28;20208;-67
2021/10/01 02:31:22;;;;;;;2.30;2.10;;;9.90;99.90;9.60;97748.00;;;;5067713;28;20220;-67
2021/10/01 02:34:12;;;;;;;2.57;1.80;;;9.90;99.90;9.70;97748.00;;;;5070041;28;20227;-69
2021/10/01 02:37:01;;;;;;;1.93;1.83;;;10.00;99.90;9.60;97742.00;;;;5083167;28;20670;-67
2021/10/01 02:39:52;;;;;;;5.53;1.70;;;9.90;99.90;9.60;97743.00;;;;5066530;28;20196;-67
2021/10/01 02:42:43;;;;;;;3.07;1.83;;;9.90;99.90;9.60;97753.00;;;;5066891;28;20234;-66
2021/10/01 02:45:31;;;;;;;5.93;1.87;;;9.90;99.90;9.60;97747.00;;;;5068803;28;20200;-69
2021/10/01 02:48:21;;;;;;;4.13;2.47;;;9.90;99.90;9.50;97750.00;;;;5068976;28;20212;-66
2021/10/01 02:51:18;;;;;;;2.73;1.43;;;9.90;99.90;9.50;97749.00;;;;5066806;28;20953;-66
2021/10/01 02:54:10;;;;;;;1.60;1.50;;;9.80;99.90;9.60;97746.00;;;;5065616;28;20232;-67
2021/10/01 02:57:08;;;;;;;3.90;1.80;;;9.80;99.90;9.60;97749.00;;;;5067573;28;20200;-66
2021/10/01 03:00:04;;;;;;;2.33;1.90;;;9.80;99.90;9.50;97742.00;;;;5067374;28;20204;-67
2021/10/01 03:02:54;;;;;;;1.93;1.73;;;9.80;99.90;9.50;97747.00;;;;5082148;28;20604;-67
2021/10/01 03:05:44;;;;;;;4.37;1.47;;;9.80;99.90;9.60;97746.00;;;;5085059;28;20202;-67
2021/10/01 03:08:35;;;;;;;1.53;1.33;;;9.80;99.90;9.50;97738.00;;;;5067864;28;20663;-66
2021/10/01 03:11:27;;;;;;;1.43;1.33;;;9.70;99.90;9.40;97735.00;;;;5066917;28;20230;-66
2021/10/01 03:14:18;;;;;;;2.43;1.67;;;9.70;99.90;9.40;97738.00;;;;5069297;28;20220;-66
2021/10/01 03:17:09;;;;;;;3.13;1.80;;;9.70;99.90;9.30;97739.00;;;;5068659;28;20214;-69
2021/10/01 03:19:59;;;;;;;3.37;1.80;;;9.60;99.90;9.30;97729.00;;;;5067727;28;20204;-66
2021/10/01 03:22:50;;;;;;;1.57;1.47;;;9.60;99.90;9.10;97731.00;;;;5067306;28;20223;-67
2021/10/01 03:25:39;;;;;;;3.10;1.53;;;9.50;99.90;9.00;97725.00;;;;5066472;28;20199;-67
2021/10/01 03:28:28;;;;;;;8.03;1.93;;;9.50;99.90;8.90;97724.00;;;;5067248;28;20200;-66
2021/10/01 03:31:17;;;;;;;4.77;1.90;;;9.40;99.90;8.80;97714.00;;;;5064774;28;20224;-67
2021/10/01 03:34:08;;;;;;;3.50;2.17;;;9.40;99.90;8.90;97716.00;;;;5066683;28;20217;-66
2021/10/01 03:36:57;;;;;;;1.67;1.57;;;9.30;99.90;8.80;97722.00;;;;5067958;28;20211;-66
2021/10/01 03:39:56;;;;;;;3.57;1.60;;;9.30;99.90;8.90;97716.00;;;;5067113;28;20203;-67
2021/10/01 03:42:45;;;;;;;6.50;2.30;;;9.20;99.90;8.80;97715.00;;;;5066089;28;20240;-66
2021/10/01 03:45:34;;;;;;;2.13;1.90;;;9.20;99.90;8.70;97714.00;;;;5067012;28;20203;-67
2021/10/01 03:48:22;;;;;;;2.83;1.83;;;9.20;99.90;8.70;97708.00;;;;5066794;28;20616;-66
2021/10/01 03:51:15;;;;;;;2.10;1.90;;;9.10;99.90;8.70;97704.00;;;;5066605;28;20223;-67
2021/10/01 03:54:04;;;;;;;2.07;1.70;;;9.00;99.90;8.50;97712.00;;;;5067343;28;20223;-67
2021/10/01 03:56:53;;;;;;;3.43;1.60;;;9.00;99.90;8.60;97713.00;;;;5066748;28;20587;-68
2021/10/01 03:59:42;;;;;;;5.53;2.00;;;9.00;99.90;8.50;97707.00;;;;5066084;28;20204;-66
2021/10/01 04:02:30;;;;;;;1.90;1.80;;;9.00;99.90;8.40;97706.00;;;;5065121;28;20624;-66
2021/10/01 04:05:19;;;;;;;3.93;1.57;;;8.90;99.90;8.40;97714.00;;;;5065579;28;20203;-66
2021/10/01 04:08:12;;;;;;;4.03;2.03;;;8.90;99.90;8.00;97704.00;;;;5065166;28;20195;-67
2021/10/01 04:11:01;;;;;;;3.30;2.25;;;8.70;99.90;7.90;97703.00;;;;5064403;28;20418;-68
2021/10/01 04:13:50;;;;;;;3.73;2.50;;;8.60;99.90;8.00;97700.00;;;;5066119;28;20203;-66
2021/10/01 04:16:39;;;;;;;1.87;1.70;;;8.60;99.90;8.00;97694.00;;;;5066015;28;20226;-68
2021/10/01 04:19:28;;;;;;;1.97;1.77;;;8.50;99.90;8.10;97695.00;;;;5064722;28;20214;-66
2021/10/01 04:22:24;;;;;;;3.23;1.90;;;8.50;99.90;8.20;97705.00;;;;5065593;28;20234;-67
2021/10/01 04:25:14;;;;;;;2.60;2.40;;;8.60;99.90;8.20;97714.00;;;;5064626;28;20208;-68
2021/10/01 04:28:06;;;;;;;2.87;1.90;;;8.60;99.90;8.10;97705.00;;;;5066413;28;20208;-67
2021/10/01 04:30:55;;;;;;;4.30;2.87;;;8.60;99.90;8.20;97707.00;;;;5064448;28;20231;-68
2021/10/01 04:33:44;;;;;;;1.60;1.50;;;8.60;99.90;8.20;97704.00;;;;5066479;28;20214;-67
2021/10/01 04:36:33;;;;;;;2.07;1.83;;;8.60;99.90;8.20;97693.00;;;;5063909;28;20250;-67
2021/10/01 04:39:22;;;;;;;1.77;1.53;;;8.60;99.90;8.20;97698.00;;;;5063893;28;20211;-66
2021/10/01 04:42:12;;;;;;;1.60;1.50;;;8.60;99.90;8.20;97705.00;;;;5064046;28;20322;-66
2021/10/01 04:45:01;;;;;;;3.33;1.97;;;8.60;99.90;8.20;97704.00;;;;5066249;28;20211;-67
2021/10/01 04:47:49;;;;;;;2.17;1.60;;;8.60;99.90;8.10;97705.00;;;;5065951;28;20314;-68
2021/10/01 04:50:40;;;;;;;2.40;1.60;;;8.50;99.90;7.60;97707.00;;;;5064385;28;20203;-67
2021/10/01 04:53:29;;;;;;;2.47;1.70;;;8.40;99.90;7.30;97705.00;;;;5067030;28;20215;-67
2021/10/01 04:56:18;;;;;;;1.80;1.63;;;8.20;99.90;7.30;97700.00;;;;5065355;28;20228;-70
2021/10/01 04:59:08;;;;;;;1.60;1.50;;;8.10;99.90;7.20;97698.00;;;;5065785;28;20211;-68
2021/10/01 05:01:57;;;;;;;5.37;2.10;;;7.90;99.90;7.00;97704.00;;;;5065800;28;20634;-67
2021/10/01 05:04:45;;;;;;;2.63;2.27;;;7.80;99.90;7.10;97705.00;;;;5065993;28;20231;-67
2021/10/01 05:07:36;;;;;;;4.20;2.37;;;7.70;99.90;7.10;97709.00;;;;5065914;28;20192;-68
2021/10/01 05:10:25;;;;;;;2.20;2.10;;;7.70;99.90;7.10;97701.00;;;;5064876;28;20209;-67
2021/10/01 05:13:14;;;;;;;2.27;1.77;;;7.70;99.90;7.10;97711.00;;;;5067469;28;20692;-68
2021/10/01 05:16:05;;;;;;;9.03;2.77;;;7.60;99.90;7.10;97717.00;;;;5066029;28;20231;-68
2021/10/01 05:18:54;;;;;;;3.20;2.30;;;7.60;99.90;7.20;97711.00;;;;5065744;28;20226;-68
2021/10/01 05:21:43;;;;;;;3.10;2.20;;;7.60;99.90;7.40;97714.00;;;;5082062;28;20230;-67
2021/10/01 05:24:32;;;;;;;2.70;2.20;;;7.70;99.90;7.60;97706.00;;;;5087710;28;20203;-67
2021/10/01 05:27:21;;;;;;;2.27;2.00;;;7.80;99.90;7.60;97714.00;;;;5084202;28;20199;-67
2021/10/01 05:30:12;;;;;;;5.30;2.50;;;7.80;99.90;7.70;97719.00;;;;5079447;28;20204;-67
2021/10/01 05:33:05;;;;;;;3.00;2.20;;;7.90;99.90;7.60;97710.00;;;;5075047;28;20204;-69
2021/10/01 05:35:54;;;;;;;2.00;1.90;;;8.00;99.90;7.40;97710.00;;;;5073887;28;20238;-67
2021/10/01 05:38:43;;;;;;;2.17;2.07;;;7.90;99.90;7.30;97707.00;;;;5069825;28;20208;-69
2021/10/01 05:41:32;;;;;;;2.87;2.43;;;7.90;99.90;7.10;97710.00;;;;5068414;28;20718;-66
2021/10/01 05:44:21;;;;;;;3.37;2.47;;;7.80;99.90;7.20;97711.00;;;;5070027;28;20219;-66
2021/10/01 05:47:09;;;;;;;2.10;2.00;;;7.70;99.90;7.20;97706.00;;;;5069295;28;20207;-66
2021/10/01 05:50:03;;;;;;;2.63;1.83;;;7.70;99.90;7.20;97712.00;;;;5079332;28;20211;-68
2021/10/01 05:52:58;;;;;;;2.57;2.37;;;7.70;99.90;7.40;97714.00;;;;5080902;28;20258;-68
2021/10/01 05:55:47;;;;;;;3.30;2.77;;;7.80;99.90;7.40;97713.00;;;;5072689;28;20226;-67
2021/10/01 05:58:36;;;;;;;2.07;1.97;;;7.80;99.90;7.60;97714.00;;;;5084929;28;20203;-68
2021/10/01 06:01:25;;;;;;;2.27;2.17;;;7.90;99.90;7.60;97721.00;;;;5088348;28;20709;-66
2021/10/01 06:04:14;;;;;;;3.63;2.50;;;7.90;99.90;7.60;97730.00;;;;5082552;28;20651;-67
2021/10/01 06:07:04;;;;;;;4.33;2.37;;;8.00;99.90;7.70;97713.00;;;;5088225;28;20199;-68
2021/10/01 06:09:53;;;;;;;5.60;1.93;;;8.10;99.90;7.80;97720.00;;;;5087273;28;20211;-67
2021/10/01 06:12:42;;;;;;;4.47;2.33;;;8.10;99.90;8.00;97722.00;;;;5089983;28;20234;-68
2021/10/01 06:15:31;;;;;;;2.37;2.27;;;8.20;99.90;8.10;97734.00;;;;5068714;28;20200;-67
2021/10/01 06:18:20;;;;;;;2.87;2.20;;;8.30;99.90;8.00;97724.00;;;;5067750;28;20203;-68
2021/10/01 06:21:09;;;;;;;2.40;2.20;;;8.40;99.90;8.00;97729.00;;;;5068606;28;20228;-67
2021/10/01 06:23:59;;;;;;;4.37;2.27;;;8.40;99.90;8.30;97734.00;;;;5069866;28;20219;-67
2021/10/01 06:26:48;;;;;;;4.73;2.30;;;8.50;99.90;8.20;97723.00;;;;5068576;28;20203;-68
2021/10/01 06:29:38;;;;;;;6.77;2.07;;;8.60;99.90;8.20;97731.00;;;;5069274;28;20207;-68
2021/10/01 06:32:32;;;;;;;2.33;2.10;;;10.20;99.90;8.30;97737.00;;;;5068296;28;20298;-67
2021/10/01 06:35:21;;;;;;;2.30;2.20;;;8.60;99.90;8.20;97733.00;;;;5071076;28;20200;-68
2021/10/01 06:38:10;;;;;;;1.73;1.60;;;8.70;99.90;8.30;97720.00;;;;5068488;28;20208;-67
2021/10/01 06:41:01;;;;;;;2.30;2.13;;;8.70;99.90;8.40;97725.00;;;;5067378;28;20227;-68
2021/10/01 06:43:57;;;;;;;2.23;2.03;;;8.80;99.90;8.70;97728.00;;;;5066985;28;20211;-66
2021/10/01 06:46:48;;;;;;;2.67;1.93;;;8.80;99.90;8.80;97726.00;;;;5072945;28;20210;-67
2021/10/01 06:49:43;;;;;;;3.57;2.30;;;9.00;99.90;9.00;97738.00;;;;5083923;28;20207;-69
2021/10/01 06:52:53;;;;;;;1.97;1.70;;;9.10;99.90;8.90;97730.00;;;;5071493;28;20223;-67
2021/10/01 08:20:00;;;;;;;4.60;1.87;;;14.00;99.90;14.50;97740.00;;;;5066244;28;20211;-68
2021/10/01 08:22:48;;;;;;;5.33;2.30;;;14.20;99.90;14.60;97731.00;;;;5065872;28;20797;-68
2021/10/01 08:25:38;;;;;;;2.97;2.10;;;14.30;99.90;14.70;97737.00;;;;5066067;28;20204;-69
2021/10/01 08:28:27;;;;;;;2.13;1.50;;;14.40;99.90;14.90;97735.00;;;;5066600;28;20204;-68
2021/10/01 08:31:16;;;;;;;3.53;2.17;;;14.60;99.90;14.40;97725.00;;;;5064985;28;20596;-67
2021/10/01 08:34:06;;;;;;;6.03;3.23;;;14.60;99.90;14.90;97731.00;;;;5065993;28;20202;-68
2021/10/01 08:36:55;;;;;;;2.20;1.67;;;14.70;99.90;15.10;97730.00;;;;5065874;28;20231;-67
2021/10/01 08:39:44;;;;;;;1.60;1.50;;;14.80;99.90;15.30;97730.00;;;;5065374;28;20212;-69
2021/10/01 08:42:34;;;;;;;2.67;1.30;;;14.90;99.90;15.40;97724.00;;;;5064125;28;20235;-68
2021/10/01 08:45:26;;;;;;;3.90;1.90;;;15.00;99.90;15.60;97722.00;;;;5066378;28;20204;-68
2021/10/01 08:48:15;;;;;;;6.90;1.93;;;15.20;99.90;15.80;97713.00;;;;5066548;28;20215;-68
2021/10/01 08:51:07;;;;;;;5.53;1.87;;;15.30;99.90;15.80;97715.00;;;;5065639;28;20231;-68
2021/10/01 08:53:57;;;;;;;3.83;1.30;;;15.50;99.90;15.90;97714.00;;;;5063621;28;20207;-68
2021/10/01 08:56:46;;;;;;;1.40;1.30;;;15.60;99.90;16.20;97717.00;;;;5065212;28;20706;-67
2021/10/01 08:59:35;;;;;;;1.97;1.30;;;15.70;99.90;16.40;97717.00;;;;5065288;28;20208;-69
2021/10/01 09:02:24;;;;;;;5.77;2.00;;;15.90;99.90;16.40;97713.00;;;;5065164;28;20227;-68
2021/10/01 09:05:13;;;;;;;2.10;1.10;;;16.00;99.90;16.50;97699.00;;;;5069284;28;20203;-69
2021/10/01 09:08:13;;;;;;;1.90;1.53;;;16.10;99.90;16.40;97706.00;;;;5084776;28;20199;-68
2021/10/01 09:11:04;;;;;;;3.80;1.60;;;16.70;99.90;16.20;97702.00;;;;5080720;28;20224;-68
2021/10/01 09:13:53;;;;;;;1.83;1.10;;;16.20;99.90;16.70;97704.00;;;;5078633;28;20204;-68
2021/10/01 09:16:43;;;;;;;6.40;1.57;;;16.30;99.90;16.50;97703.00;;;;5082200;28;20218;-68
2021/10/01 09:19:39;;;;;;;3.43;1.80;;;16.40;99.90;16.70;97700.00;;;;5082632;28;20705;-68
2021/10/01 09:22:32;;;;;;;5.10;1.73;;;16.40;99.90;17.00;97697.00;;;;5081849;28;20215;-68
2021/10/01 09:25:24;;;;;;;1.87;1.50;;;16.50;99.90;17.10;97692.00;;;;5076625;28;20197;-68
2021/10/01 09:28:13;;;;;;;3.00;1.60;;;16.60;99.90;17.40;97696.00;;;;5079166;28;20257;-68
2021/10/01 09:31:02;;;;;;;4.23;1.87;;;16.80;99.90;17.30;97688.00;;;;5078774;28;20226;-68
2021/10/01 09:33:51;;;;;;;3.90;1.70;;;16.90;99.90;17.20;97687.00;;;;5076414;28;20208;-67
2021/10/01 09:36:41;;;;;;;1.73;1.47;;;17.10;99.90;17.50;97685.00;;;;5065408;28;20608;-67
2021/10/01 09:39:34;;;;;;;1.87;1.73;;;17.20;99.90;17.90;97685.00;;;;5081112;28;20199;-68
2021/10/01 09:42:27;;;;;;;3.47;1.43;;;17.30;99.90;18.10;97678.00;;;;5071780;28;20616;-68
2021/10/01 09:45:18;;;;;;;4.23;1.70;;;17.50;99.90;18.40;97678.00;;;;5065422;28;20866;-67
2021/10/01 09:48:07;;;;;;;5.00;1.43;;;17.70;99.90;18.50;97681.00;;;;5065717;28;20208;-68
2021/10/01 09:51:09;;;;;;;1.43;1.10;;;17.90;99.90;18.80;97677.00;;;;5063587;28;20227;-68
2021/10/01 09:54:01;;;;;;;2.10;1.50;;;18.10;99.90;18.50;97669.00;;;;5072848;28;20203;-67
2021/10/01 09:56:51;;;;;;;7.67;1.73;;;18.20;99.90;18.80;97670.00;;;;5084666;28;20208;-67
2021/10/01 09:59:42;;;;;;;4.90;1.37;;;18.20;99.90;18.80;97665.00;;;;5079517;28;20191;-68
2021/10/01 10:02:38;;;;;;;2.93;1.70;;;18.30;99.10;19.00;97667.00;;;;5073401;28;20233;-67
2021/10/01 10:05:57;;;;;;;5.80;1.40;;;18.50;99.20;19.00;97660.00;;;;5079371;28;20234;-68
2021/10/01 10:08:46;;;;;;;7.77;2.73;;;18.70;98.50;18.00;97659.00;;;;5076042;28;20667;-67
2021/10/01 10:11:41;;;;;;;1.70;1.60;;;18.70;95.80;17.40;97656.00;;;;5086782;28;20780;-67
2021/10/01 10:14:34;;;;;;;1.90;1.63;;;18.60;95.00;17.00;97652.00;;;;5083121;28;20545;-69
2021/10/01 10:17:27;;;;;;;3.73;1.37;;;18.30;94.90;17.20;97657.00;;;;5075146;28;20224;-68
2021/10/01 10:20:18;;;;;;;2.27;1.20;;;18.10;94.70;17.30;97639.00;;;;5070962;28;20195;-67
2021/10/01 10:23:06;;;;;;;1.57;1.00;;;17.90;94.70;18.80;97640.00;;;;5083874;28;20199;-67
2021/10/01 10:25:55;;;;;;;2.50;1.30;;;18.00;96.20;19.80;97639.00;;;;5085485;28;20199;-68
2021/10/01 10:28:46;;;;;;;1.60;1.33;;;18.40;98.20;19.30;97640.00;;;;5078654;28;20674;-68
2021/10/01 10:31:38;;;;;;;1.60;1.50;;;18.90;95.00;19.70;97633.00;;;;5081583;28;20235;-68
2021/10/01 10:34:31;;;;;;;4.53;1.60;;;19.20;95.00;20.20;97630.00;;;;5072085;28;20191;-68
2021/10/01 10:37:22;;;;;;;3.33;1.57;;;19.60;94.50;20.60;97639.00;;;;5080955;28;20214;-68
2021/10/01 10:40:13;;;;;;;5.40;1.90;;;20.10;93.70;20.70;97628.00;;;;5085926;28;20187;-68
2021/10/01 10:43:04;;;;;;;2.80;1.30;;;20.40;91.90;21.00;97624.00;;;;5088134;28;20214;-68
2021/10/01 10:45:53;;;;;;;2.10;1.30;;;20.70;91.10;21.20;97619.00;;;;5083184;28;20191;-68
2021/10/01 10:48:42;;;;;;;1.97;1.50;;;21.00;85.90;21.80;97613.00;;;;5082236;28;20199;-68
2021/10/01 10:52:03;;;;;;;2.67;1.80;;;21.20;87.60;21.40;97612.00;;;;5085229;28;20649;-68
2021/10/01 10:54:55;;;;;;;3.00;1.33;;;21.50;84.60;20.10;97609.00;;;;5087696;28;20203;-70
2021/10/01 10:57:46;;;;;;;3.10;0.90;;;21.50;81.80;19.30;97599.00;;;;5087920;28;20694;-67
2021/10/01 11:00:41;;;;;;;3.23;1.30;;;20.70;80.80;20.30;97592.00;;;;5086399;28;20203;-68
2021/10/01 11:03:33;;;;;;;5.40;1.50;;;21.00;80.00;21.60;97596.00;;;;5081638;28;20209;-67
2021/10/01 11:06:22;;;;;;;3.90;1.43;;;21.30;80.10;21.20;97584.00;;;;5084140;28;20567;-67
2021/10/01 11:09:31;;;;;;;2.20;1.20;;;21.40;79.40;22.40;97591.00;;;;5074636;28;20578;-68
2021/10/01 11:12:27;;;;;;;1.37;1.23;;;21.80;78.30;22.30;97594.00;;;;5084556;28;20736;-67
2021/10/01 11:15:20;;;;;;;2.20;1.07;;;21.90;76.50;22.20;97587.00;;;;5084212;28;20194;-67
2021/10/01 11:18:14;;;;;;;5.50;1.17;;;22.30;73.00;23.00;97582.00;;;;5080196;28;20220;-68
2021/10/01 11:21:30;;;;;;;1.23;1.13;;;22.50;74.40;20.40;97562.00;;;;5072664;28;20229;-68
2021/10/01 11:24:22;;;;;;;2.50;1.23;;;22.70;67.70;20.30;97572.00;;;;5084159;28;20551;-67
2021/10/01 11:27:12;;;;;;;2.00;1.13;;;21.40;71.00;22.00;97584.00;;;;5082000;28;20205;-67
2021/10/01 11:30:01;;;;;;;1.60;1.20;;;21.50;73.70;21.20;97565.00;;;;5066374;28;20197;-70
2021/10/01 11:32:50;;;;;;;1.57;1.10;;;21.60;71.50;20.50;97563.00;;;;5078877;28;20226;-68
2021/10/01 11:35:52;;;;;;;1.13;0.83;;;21.40;70.80;22.10;97553.00;;;;5075472;28;20205;-68
2021/10/01 11:38:41;;;;;;;3.07;0.97;;;21.70;69.60;22.40;97554.00;;;;5077421;28;20232;-68
2021/10/01 11:41:30;;;;;;;1.47;0.90;;;21.90;70.70;21.80;97555.00;;;;5084077;28;20717;-68
2021/10/01 11:44:25;;;;;;;2.53;1.63;;;22.10;67.30;22.60;97579.00;;;;5086200;28;20683;-67
2021/10/01 11:47:14;;;;;;;2.87;1.00;;;22.30;66.80;23.60;97545.00;;;;5075282;28;20216;-69
2021/10/01 11:50:04;;;;;;;2.00;0.90;;;22.70;67.50;22.90;97545.00;;;;5071094;28;20674;-68
2021/10/01 11:52:55;;;;;;;1.23;1.10;;;23.00;66.50;21.60;97538.00;;;;5087209;28;20237;-67
2021/10/01 11:55:53;;;;;;;1.67;1.00;;;23.00;64.30;23.10;97533.00;;;;5086480;28;20211;-69
2021/10/01 11:58:41;;;;;;;1.40;1.30;;;23.00;64.00;20.20;97504.00;;;;5084121;28;20711;-69
2021/10/01 12:01:32;;;;;;;2.20;1.50;;;22.50;62.60;20.50;97518.00;;;;5081054;28;20226;-69
2021/10/01 12:04:33;;;;;;;3.20;1.67;;;21.40;67.90;21.60;97509.00;;;;5081467;28;20218;-68
2021/10/01 12:07:22;;;;;;;5.03;1.57;;;21.50;66.60;21.30;97502.00;;;;5081695;28;20240;-68
2021/10/01 12:10:11;;;;;;;1.47;1.30;;;21.50;67.30;20.10;97492.00;;;;5081904;28;20263;-68
2021/10/01 12:13:06;;;;;;;3.97;2.00;;;21.00;67.20;20.40;97490.00;;;;5079030;28;20192;-69
2021/10/01 12:15:58;;;;;;;2.57;0.80;;;20.90;68.00;20.60;97491.00;;;;5083315;28;20207;-70
2021/10/01 12:18:58;;;;;;;1.37;1.27;;;20.70;67.90;21.50;97497.00;;;;5083406;28;20226;-67
2021/10/01 12:21:47;;;;;;;5.50;1.30;;;21.00;68.80;23.50;97502.00;;;;5082339;28;20853;-66
2021/10/01 12:24:44;;;;;;;3.17;1.00;;;21.60;70.50;23.90;97510.00;;;;5089543;28;20696;-67
2021/10/01 12:27:40;;;;;;;2.50;1.13;;;22.30;68.80;23.40;97498.00;;;;5069764;28;20202;-67
2021/10/01 12:30:29;;;;;;;1.30;1.20;;;22.80;64.20;24.50;97492.00;;;;5077840;28;20207;-67
2021/10/01 12:33:18;;;;;;;2.10;1.13;;;23.20;65.40;24.60;97488.00;;;;5091371;28;20212;-66
2021/10/01 12:36:08;;;;;;;0.73;0.60;;;23.60;64.60;23.40;97484.00;;;;5077965;28;20209;-66
2021/10/01 12:39:00;;;;;;;1.90;1.03;;;23.70;60.70;21.80;97478.00;;;;5081084;28;20232;-66
2021/10/01 12:41:56;;;;;;;1.93;0.80;;;23.60;59.80;22.00;97468.00;;;;5082417;28;20230;-66
2021/10/01 12:44:58;;;;;;;2.40;0.90;;;23.10;60.30;20.20;97456.00;;;;5085545;28;20375;-67
2021/10/01 12:47:50;;;;;;;1.27;1.10;;;22.40;61.70;20.10;97447.00;;;;5078277;28;20208;-67
2021/10/01 12:50:39;;;;;;;2.70;0.90;;;21.40;64.00;22.20;97473.00;;;;5082059;28;20213;-66
2021/10/01 12:53:29;;;;;;;2.10;1.03;;;21.50;65.50;22.70;97463.00;;;;5081108;28;20216;-66
2021/10/01 12:56:19;;;;;;;2.17;1.00;;;21.90;67.60;22.70;97515.00;;;;5084971;28;20571;-66
2021/10/01 12:59:08;;;;;;;2.30;1.00;;;22.20;65.60;22.60;97513.00;;;;5083703;28;20218;-67
2021/10/01 13:02:11;;;;;;;1.43;1.03;;;22.20;65.00;22.20;97469.00;;;;5084570;28;20608;-68
2021/10/01 13:05:04;;;;;;;0.90;0.70;;;22.30;64.30;23.20;97452.00;;;;5076737;28;20765;-67
2021/10/01 13:08:09;;;;;;;4.00;0.70;;;22.50;61.90;23.50;97447.00;;;;5085224;28;20573;-68
2021/10/01 13:11:01;;;;;;;1.33;0.83;;;22.90;60.90;24.10;97450.00;;;;5076189;28;20218;-66
2021/10/01 13:13:50;;;;;;;1.97;0.83;;;23.20;62.10;24.10;97455.00;;;;5069722;28;20700;-67
2021/10/01 13:16:39;;;;;;;2.30;0.77;;;23.60;59.60;24.20;97448.00;;;;5081630;28;20208;-66
2021/10/01 13:19:27;;;;;;;0.67;0.67;;;23.70;59.50;24.20;97440.00;;;;5077241;28;20241;-66
2021/10/01 13:22:16;;;;;;;1.27;0.60;;;23.80;58.90;25.00;97438.00;;;;5083426;28;20727;-66
2021/10/01 13:25:06;;;;;;;3.40;1.33;;;24.00;59.50;26.20;97434.00;;;;5090423;28;20211;-66
2021/10/01 13:27:58;;;;;;;1.50;0.73;;;24.50;60.30;26.60;97432.00;;;;5085451;28;20200;-66
2021/10/01 13:30:48;;;;;;;3.43;1.23;;;25.10;59.50;26.00;97427.00;;;;5083420;28;20234;-66
2021/10/01 13:33:37;;;;;;;1.75;0.80;;;25.70;56.80;26.20;97419.00;;;;5082980;28;20216;-66
2021/10/01 13:36:26;;;;;;;0.60;0.60;;;25.70;56.40;27.10;97420.00;;;;5087459;28;20555;-66
2021/10/01 13:39:15;;;;;;;2.25;1.33;;;26.10;56.60;26.90;97411.00;;;;5072641;28;20235;-66
2021/10/01 13:42:04;;;;;;;1.13;0.70;;;26.70;53.90;26.00;97406.00;;;;5071036;28;20232;-66
2021/10/01 13:44:54;;;;;;;1.48;0.75;;;27.00;52.30;26.10;97408.00;;;;5089232;28;20205;-66
2021/10/01 13:47:43;;;;;;;0.68;0.63;;;27.10;51.40;23.90;97401.00;;;;5087533;28;20224;-66
2021/10/01 13:50:33;;;;;;;0.85;0.60;;;26.70;50.90;24.80;97396.00;;;;5084378;28;20187;-66
2021/10/01 13:53:23;;;;;;;6.22;2.25;;;26.00;53.80;25.90;97402.00;;;;5084044;28;20212;-66
2021/10/01 13:56:12;;;;;;;1.02;0.80;;;25.80;53.90;27.30;97407.00;;;;5088830;28;20211;-67
2021/10/01 13:59:01;;;;;;;2.50;0.55;;;26.30;54.50;26.80;97407.00;;;;5083484;28;20205;-66
2021/10/01 14:01:51;;;;;;;2.17;0.80;;;26.80;52.70;27.80;97403.00;;;;5077106;28;20227;-66
2021/10/01 14:04:40;;;;;;;1.58;0.70;;;27.30;52.80;28.00;97397.00;;;;5078466;28;20211;-66
2021/10/01 14:07:28;;;;;;;0.43;0.43;;;27.50;52.30;28.10;97400.00;;;;5086045;28;20210;-66
2021/10/01 14:10:22;;;;;;;2.35;0.63;;;27.80;51.40;28.70;97399.00;;;;5072451;28;20202;-66
2021/10/01 14:13:12;;;;;;;1.13;0.70;;;28.30;50.60;29.10;97391.00;;;;5069925;28;20205;-66
2021/10/01 14:16:01;;;;;;;3.55;0.88;;;28.80;50.60;28.20;97389.00;;;;5072227;28;20198;-66
2021/10/01 14:18:52;;;;;;;1.52;1.13;;;29.00;48.30;28.80;97394.00;;;;5083349;28;20234;-66